createdAt,value
2019-02-24T00:00:58.619Z,43.13
2019-02-24T00:03:30.188Z,44.07
2019-02-24T00:06:01.827Z,31.93
2019-02-24T00:08:33.378Z,35.10
2019-02-24T00:11:04.936Z,32.93
2019-02-24T00:13:36.490Z,37.87
2019-02-24T00:16:08.036Z,39.90
2019-02-24T00:18:39.582Z,35.33
2019-02-24T00:21:12.217Z,35.93
2019-02-24T00:23:43.907Z,40.40
2019-02-24T00:26:15.477Z,36.67
2019-02-24T00:28:47.016Z,35.80
2019-02-24T00:31:18.513Z,39.83
2019-02-24T00:33:50.149Z,34.67
2019-02-24T00:36:21.759Z,45.87
2019-02-24T00:38:53.304Z,32.83
2019-02-24T00:41:24.974Z,42.63
2019-02-24T00:43:56.462Z,40.33
2019-02-24T00:46:28.061Z,29.00
2019-02-24T00:48:59.761Z,34.43
2019-02-24T00:51:31.333Z,38.47
2019-02-24T00:54:03.005Z,33.07
2019-02-24T00:56:34.686Z,35.63
2019-02-24T00:59:06.239Z,38.80
2019-02-24T01:01:37.827Z,30.53
2019-02-24T01:04:09.457Z,31.97
2019-02-24T01:06:41.035Z,30.77
2019-02-24T01:09:13.812Z,36.53
2019-02-24T01:11:45.445Z,30.03
2019-02-24T01:14:17.040Z,33.17
2019-02-24T01:16:48.626Z,28.97
2019-02-24T01:19:20.209Z,37.70
2019-02-24T01:21:51.730Z,29.73
2019-02-24T01:24:23.260Z,33.93
2019-02-24T01:26:54.870Z,36.73
2019-02-24T01:29:26.546Z,35.30
2019-02-24T01:31:58.136Z,36.63
2019-02-24T01:34:29.695Z,36.47
2019-02-24T01:37:01.242Z,31.33
2019-02-24T01:39:32.789Z,33.23
2019-02-24T01:42:04.438Z,34.53
2019-02-24T01:44:35.992Z,36.40
2019-02-24T01:47:08.794Z,29.10
2019-02-24T01:49:40.293Z,30.37
2019-02-24T01:52:11.852Z,33.47
2019-02-24T01:54:43.400Z,33.53
2019-02-24T01:57:15.098Z,30.80
2019-02-24T01:59:46.594Z,34.87
2019-02-24T02:02:18.161Z,33.80
2019-02-24T02:04:49.887Z,35.50
2019-02-24T02:07:21.433Z,32.27
2019-02-24T02:09:54.186Z,36.67
2019-02-24T02:12:25.780Z,34.90
2019-02-24T02:14:57.301Z,36.17
2019-02-24T02:17:28.845Z,35.50
2019-02-24T02:20:00.415Z,36.60
2019-02-24T02:22:32.028Z,36.97
2019-02-24T02:25:04.804Z,35.47
2019-02-24T02:27:36.362Z,39.20
2019-02-24T02:30:11.041Z,35.50
2019-02-24T02:32:42.942Z,46.63
2019-02-24T02:35:14.537Z,44.53
2019-02-24T02:37:46.040Z,41.70
2019-02-24T02:40:17.820Z,48.27
2019-02-24T02:42:49.378Z,43.40
2019-02-24T02:45:20.890Z,43.33
2019-02-24T02:47:52.413Z,35.10
2019-02-24T02:50:23.930Z,45.80
2019-02-24T02:52:55.443Z,39.63
2019-02-24T02:55:26.958Z,37.17
2019-02-24T02:57:58.580Z,38.73
2019-02-24T03:00:33.364Z,40.80
2019-02-24T03:03:04.944Z,35.40
2019-02-24T03:05:36.522Z,40.27
2019-02-24T03:08:09.709Z,36.13
2019-02-24T03:10:41.248Z,42.00
2019-02-24T03:13:12.829Z,39.33
2019-02-24T03:15:44.578Z,37.23
2019-02-24T03:18:16.242Z,49.43
2019-02-24T03:20:47.850Z,42.57
2019-02-24T03:23:19.384Z,39.10
2019-02-24T03:25:51.016Z,45.63
2019-02-24T03:28:22.635Z,40.50
2019-02-24T03:30:54.261Z,36.70
2019-02-24T03:33:25.803Z,40.67
2019-02-24T03:35:57.326Z,44.00
2019-02-24T03:38:28.871Z,48.03
2019-02-24T03:41:00.392Z,46.67
2019-02-24T03:43:31.982Z,43.17
2019-02-24T03:46:03.509Z,43.13
2019-02-24T03:48:35.087Z,43.77
2019-02-24T03:51:06.768Z,40.63
2019-02-24T03:53:38.338Z,36.33
2019-02-24T03:56:09.915Z,40.60
2019-02-24T03:58:41.823Z,49.53
2019-02-24T04:01:13.393Z,37.23
2019-02-24T04:03:44.986Z,41.63
2019-02-24T04:06:16.607Z,30.60
2019-02-24T04:08:48.225Z,40.57
2019-02-24T04:11:19.751Z,36.60
2019-02-24T04:13:51.458Z,35.57
2019-02-24T04:16:22.989Z,37.93
2019-02-24T04:18:54.581Z,34.20
2019-02-24T04:21:26.156Z,36.33
2019-02-24T04:23:57.722Z,37.17
2019-02-24T04:26:29.336Z,36.00
2019-02-24T04:29:00.937Z,33.00
2019-02-24T04:31:32.466Z,38.43
2019-02-24T04:34:04.051Z,34.27
2019-02-24T04:36:35.589Z,41.27
2019-02-24T04:39:07.152Z,36.40
2019-02-24T04:41:38.848Z,43.50
2019-02-24T04:44:10.438Z,38.63
2019-02-24T04:46:41.961Z,45.50
2019-02-24T04:49:13.562Z,41.87
2019-02-24T04:51:46.342Z,36.33
2019-02-24T04:54:18.987Z,61.67
2019-02-24T04:56:50.644Z,46.00
2019-02-24T04:59:22.165Z,44.50
2019-02-24T05:01:53.696Z,41.03
2019-02-24T05:04:25.221Z,38.33
2019-02-24T05:06:56.973Z,43.87
2019-02-24T05:09:28.536Z,42.47
2019-02-24T05:12:00.225Z,45.63
2019-02-24T05:14:31.788Z,37.33
2019-02-24T05:17:03.331Z,41.50
2019-02-24T05:19:34.868Z,37.60
2019-02-24T05:22:06.501Z,39.30
2019-02-24T05:24:38.201Z,41.13
2019-02-24T05:27:09.744Z,40.30
2019-02-24T05:29:45.850Z,43.87
2019-02-24T05:32:14.515Z,44.40
2019-02-24T05:34:46.036Z,43.93
2019-02-24T05:37:17.572Z,38.53
2019-02-24T05:39:49.086Z,40.83
2019-02-24T05:42:20.616Z,42.83
2019-02-24T05:44:52.133Z,39.83
2019-02-24T05:47:23.639Z,44.70
2019-02-24T05:49:55.167Z,60.07
2019-02-24T05:52:26.667Z,55.03
2019-02-24T05:54:58.180Z,53.60
2019-02-24T05:57:29.674Z,46.13
2019-02-24T06:00:01.211Z,39.10
2019-02-24T06:02:32.913Z,42.40
2019-02-24T06:05:05.170Z,41.30
2019-02-24T06:07:36.745Z,38.83
2019-02-24T06:10:13.295Z,40.80
2019-02-24T06:12:44.833Z,37.30
2019-02-24T06:15:16.373Z,39.67
2019-02-24T06:17:47.948Z,40.17
2019-02-24T06:20:19.530Z,34.60
2019-02-24T06:22:51.123Z,40.60
2019-02-24T06:25:22.791Z,35.17
2019-02-24T06:27:54.472Z,41.47
2019-02-24T06:30:26.058Z,30.30
2019-02-24T06:32:57.691Z,37.33
2019-02-24T06:35:29.303Z,38.67
2019-02-24T06:38:02.450Z,41.20
2019-02-24T06:40:34.066Z,43.70
2019-02-24T06:43:05.598Z,34.83
2019-02-24T06:45:37.304Z,40.07
2019-02-24T06:48:08.967Z,37.90
2019-02-24T06:50:48.987Z,37.10
2019-02-24T06:53:20.627Z,41.77
2019-02-24T06:55:52.526Z,37.00
2019-02-24T06:58:24.082Z,36.47
2019-02-24T07:00:55.609Z,40.30
2019-02-24T07:03:27.200Z,44.57
2019-02-24T07:05:58.862Z,40.07
2019-02-24T07:08:30.428Z,42.83
2019-02-24T07:11:01.955Z,43.20
2019-02-24T07:13:33.510Z,41.17
2019-02-24T07:16:05.134Z,37.77
2019-02-24T07:18:36.655Z,38.33
2019-02-24T07:21:08.178Z,39.13
2019-02-24T07:23:39.739Z,36.73
2019-02-24T07:26:11.242Z,40.87
2019-02-24T07:28:42.745Z,47.47
2019-02-24T07:31:14.278Z,38.20
2019-02-24T07:33:45.815Z,43.43
2019-02-24T07:36:17.354Z,48.33
2019-02-24T07:38:48.965Z,37.43
2019-02-24T07:41:22.158Z,36.20
2019-02-24T07:43:53.766Z,29.47
2019-02-24T07:46:25.387Z,33.07
2019-02-24T07:48:56.960Z,31.90
2019-02-24T07:51:28.491Z,38.50
2019-02-24T07:54:00.111Z,36.10
2019-02-24T07:56:31.695Z,32.03
2019-02-24T07:59:03.361Z,35.37
2019-02-24T08:01:34.959Z,34.47
2019-02-24T08:04:06.631Z,41.30
2019-02-24T08:06:38.275Z,30.47
2019-02-24T08:09:09.806Z,27.70
2019-02-24T08:11:41.418Z,29.37
2019-02-24T08:14:13.009Z,33.60
2019-02-24T08:16:44.611Z,38.23
2019-02-24T08:19:16.207Z,43.87
2019-02-24T08:21:47.899Z,37.93
2019-02-24T08:24:19.602Z,34.60
2019-02-24T08:26:51.152Z,35.57
2019-02-24T08:29:22.669Z,29.60
2019-02-24T08:31:54.215Z,27.47
2019-02-24T08:34:25.738Z,30.93
2019-02-24T08:36:57.355Z,28.57
2019-02-24T08:39:28.969Z,28.93
2019-02-24T08:42:00.593Z,36.27
2019-02-24T08:44:32.123Z,31.00
2019-02-24T08:47:03.671Z,33.20
2019-02-24T08:49:35.263Z,27.80
2019-02-24T08:52:06.790Z,31.50
2019-02-24T08:54:38.326Z,32.33
2019-02-24T08:57:09.893Z,27.80
2019-02-24T08:59:41.592Z,24.30
2019-02-24T09:02:13.156Z,31.40
2019-02-24T09:04:44.687Z,20.47
2019-02-24T09:07:16.215Z,22.60
2019-02-24T09:09:47.807Z,23.03
2019-02-24T09:12:19.356Z,23.43
2019-02-24T09:14:51.012Z,19.93
2019-02-24T09:17:22.641Z,22.20
2019-02-24T09:19:54.204Z,24.97
2019-02-24T09:22:25.784Z,25.50
2019-02-24T09:24:57.348Z,25.47
2019-02-24T09:27:31.857Z,27.63
2019-02-24T09:30:16.051Z,22.53
2019-02-24T09:32:47.785Z,28.30
2019-02-24T09:35:19.348Z,22.53
2019-02-24T09:37:50.966Z,20.10
2019-02-24T09:40:22.472Z,32.50
2019-02-24T09:42:54.031Z,22.00
2019-02-24T09:45:25.590Z,23.57
2019-02-24T09:47:57.233Z,21.73
2019-02-24T09:50:28.804Z,25.77
2019-02-24T09:53:00.467Z,17.50
2019-02-24T09:55:32.093Z,22.47
2019-02-24T09:58:03.815Z,25.60
2019-02-24T10:00:35.425Z,21.87
2019-02-24T10:03:06.968Z,17.50
2019-02-24T10:05:39.094Z,20.90
2019-02-24T10:08:10.856Z,19.50
2019-02-24T10:10:43.547Z,21.27
2019-02-24T10:13:15.126Z,23.97
2019-02-24T10:15:46.742Z,22.33
2019-02-24T10:18:18.307Z,21.93
2019-02-24T10:20:49.876Z,21.10
2019-02-24T10:23:34.037Z,16.77
2019-02-24T10:26:05.693Z,22.67
2019-02-24T10:28:40.746Z,21.73
2019-02-24T10:31:19.608Z,15.67
2019-02-24T10:33:45.835Z,18.93
2019-02-24T10:36:18.007Z,16.57
2019-02-24T10:38:49.652Z,16.80
2019-02-24T10:41:21.229Z,16.93
2019-02-24T10:43:52.839Z,16.97
2019-02-24T10:46:25.136Z,16.30
2019-02-24T10:49:03.090Z,17.87
2019-02-24T10:51:30.443Z,13.77
2019-02-24T10:54:01.977Z,16.43
2019-02-24T10:56:33.586Z,25.40
2019-02-24T10:59:05.122Z,19.10
2019-02-24T11:01:37.170Z,20.47
2019-02-24T11:04:10.492Z,15.97
2019-02-24T11:06:42.045Z,18.77
2019-02-24T11:09:13.567Z,20.83
2019-02-24T11:11:45.155Z,22.63
2019-02-24T11:14:16.883Z,15.93
2019-02-24T11:16:48.831Z,18.07
2019-02-24T11:19:20.454Z,16.80
2019-02-24T11:21:52.683Z,19.07
2019-02-24T11:24:24.309Z,17.40
2019-02-24T11:26:55.825Z,16.63
2019-02-24T11:29:27.427Z,16.80
2019-02-24T11:31:59.124Z,20.93
2019-02-24T11:34:30.772Z,19.10
2019-02-24T11:37:02.927Z,19.20
2019-02-24T11:39:35.215Z,17.07
2019-02-24T11:42:06.800Z,15.73
2019-02-24T11:44:38.471Z,17.30
2019-02-24T11:47:10.142Z,14.10
2019-02-24T11:49:42.385Z,18.40
2019-02-24T11:52:14.395Z,17.77
2019-02-24T11:54:46.088Z,12.20
2019-02-24T11:57:17.641Z,11.53
2019-02-24T11:59:49.560Z,15.67
2019-02-24T12:02:21.638Z,16.03
2019-02-24T12:04:53.128Z,19.13
2019-02-24T12:07:25.201Z,17.03
2019-02-24T12:09:56.746Z,11.83
2019-02-24T12:12:28.351Z,16.27
2019-02-24T12:14:59.955Z,16.87
2019-02-24T12:17:31.572Z,13.00
2019-02-24T12:20:03.400Z,16.07
2019-02-24T12:22:35.014Z,13.27
2019-02-24T12:25:09.719Z,14.13
2019-02-24T12:27:42.890Z,14.33
2019-02-24T12:30:18.580Z,11.33
2019-02-24T12:32:50.574Z,10.73
2019-02-24T12:35:22.657Z,10.67
2019-02-24T12:37:54.324Z,11.50
2019-02-24T12:40:28.444Z,9.63
2019-02-24T12:43:00.117Z,10.67
2019-02-24T12:45:31.675Z,9.50
2019-02-24T12:48:03.272Z,11.60
2019-02-24T12:50:35.401Z,13.93
2019-02-24T12:53:07.057Z,12.13
2019-02-24T12:55:38.771Z,9.83
2019-02-24T12:58:10.387Z,10.73
2019-02-24T13:00:42.108Z,11.40
2019-02-24T13:03:13.746Z,14.20
2019-02-24T13:05:45.751Z,13.03
2019-02-24T13:08:17.387Z,13.63
2019-02-24T13:10:49.087Z,11.28
2019-02-24T13:13:20.763Z,11.07
2019-02-24T13:15:52.374Z,11.77
2019-02-24T13:18:24.999Z,15.20
2019-02-24T13:20:56.714Z,9.80
2019-02-24T13:23:28.774Z,11.93
2019-02-24T13:26:00.779Z,8.07
2019-02-24T13:28:32.759Z,13.17
2019-02-24T13:31:04.338Z,17.50
2019-02-24T13:33:37.243Z,11.73
2019-02-24T13:36:09.398Z,10.63
2019-02-24T13:38:41.053Z,14.40
2019-02-24T13:41:18.926Z,21.07
2019-02-24T13:43:51.632Z,14.03
2019-02-24T13:46:23.192Z,11.93
2019-02-24T13:48:54.732Z,12.67
2019-02-24T13:51:26.237Z,19.23
2019-02-24T13:53:58.890Z,10.32
2019-02-24T13:56:30.446Z,11.53
2019-02-24T13:59:02.067Z,15.95
2019-02-24T14:01:33.613Z,16.20
2019-02-24T14:04:05.161Z,13.07
2019-02-24T14:06:36.812Z,14.03
2019-02-24T14:09:08.576Z,10.60
2019-02-24T14:11:40.213Z,11.50
2019-02-24T14:14:11.784Z,14.67
2019-02-24T14:16:43.463Z,13.40
2019-02-24T14:19:15.146Z,14.20
2019-02-24T14:21:46.745Z,12.23
2019-02-24T14:24:19.983Z,13.13
2019-02-24T14:26:51.763Z,13.18
2019-02-24T14:29:23.292Z,10.33
2019-02-24T14:31:54.819Z,10.27
2019-02-24T14:34:26.354Z,11.73
2019-02-24T14:36:59.434Z,11.10
2019-02-24T14:39:31.218Z,11.07
2019-02-24T14:42:04.104Z,9.40
2019-02-24T14:44:37.015Z,15.27
2019-02-24T14:47:08.591Z,15.03
2019-02-24T14:49:40.291Z,13.97
2019-02-24T14:52:11.870Z,15.60
2019-02-24T14:54:43.576Z,14.50
2019-02-24T14:57:15.191Z,14.70
2019-02-24T14:59:46.764Z,10.27
2019-02-24T15:02:18.462Z,12.37
2019-02-24T15:04:49.980Z,13.80
2019-02-24T15:07:21.483Z,16.43
2019-02-24T15:09:53.046Z,13.17
2019-02-24T15:12:24.619Z,14.50
2019-02-24T15:14:56.229Z,11.13
2019-02-24T15:17:27.802Z,11.07
2019-02-24T15:19:59.319Z,13.73
2019-02-24T15:22:30.832Z,14.30
2019-02-24T15:25:02.359Z,10.57
2019-02-24T15:27:33.872Z,12.10
2019-02-24T15:30:10.036Z,12.40
2019-02-24T15:32:41.635Z,14.33
2019-02-24T15:35:13.228Z,17.63
2019-02-24T15:37:44.825Z,17.33
2019-02-24T15:40:16.397Z,12.63
2019-02-24T15:42:47.999Z,13.67
2019-02-24T15:45:19.605Z,18.57
2019-02-24T15:47:51.182Z,13.70
2019-02-24T15:50:22.790Z,16.13
2019-02-24T15:52:54.318Z,17.17
2019-02-24T15:55:25.855Z,19.33
2019-02-24T15:57:57.416Z,15.67
2019-02-24T16:00:29.106Z,18.73
2019-02-24T16:03:01.898Z,13.33
2019-02-24T16:05:33.729Z,14.40
2019-02-24T16:08:05.276Z,14.17
2019-02-24T16:10:36.812Z,13.30
2019-02-24T16:13:16.617Z,16.00
2019-02-24T16:15:41.680Z,12.00
2019-02-24T16:18:13.244Z,14.27
2019-02-24T16:20:44.847Z,10.30
2019-02-24T16:23:16.596Z,12.50
2019-02-24T16:25:48.188Z,16.83
2019-02-24T16:28:19.779Z,13.30
2019-02-24T16:30:51.439Z,11.57
2019-02-24T16:33:23.050Z,15.57
2019-02-24T16:35:54.678Z,15.03
2019-02-24T16:38:26.270Z,16.43
2019-02-24T16:40:57.856Z,19.13
2019-02-24T16:43:30.586Z,25.13
2019-02-24T16:46:02.124Z,22.33
2019-02-24T16:48:33.787Z,20.20
2019-02-24T16:51:05.512Z,21.37
2019-02-24T16:53:38.101Z,24.17
2019-02-24T16:56:09.819Z,20.93
2019-02-24T16:58:43.282Z,17.87
2019-02-24T17:01:15.754Z,18.97
2019-02-24T17:03:47.307Z,14.23
2019-02-24T17:06:19.233Z,17.27
2019-02-24T17:08:52.101Z,21.17
2019-02-24T17:11:24.206Z,20.27
2019-02-24T17:13:55.823Z,27.27
2019-02-24T17:16:31.918Z,21.70
2019-02-24T17:19:05.979Z,18.07
2019-02-24T17:21:38.834Z,23.17
2019-02-24T17:24:10.638Z,21.03
2019-02-24T17:26:42.191Z,20.97
2019-02-24T17:29:14.762Z,25.90
2019-02-24T17:31:46.489Z,23.67
2019-02-24T17:34:18.139Z,22.70
2019-02-24T17:36:51.491Z,23.60
2019-02-24T17:39:23.079Z,20.03
2019-02-24T17:41:54.626Z,26.50
2019-02-24T17:44:26.265Z,26.37
2019-02-24T17:46:57.872Z,20.47
2019-02-24T17:49:29.405Z,19.93
2019-02-24T17:52:00.990Z,19.67
2019-02-24T17:54:32.569Z,21.90
2019-02-24T17:57:04.205Z,25.20
2019-02-24T17:59:40.372Z,30.37
2019-02-24T18:02:09.395Z,32.77
2019-02-24T18:04:40.961Z,28.33
2019-02-24T18:07:12.559Z,28.83
2019-02-24T18:09:44.156Z,28.90
2019-02-24T18:12:15.984Z,33.07
2019-02-24T18:14:47.578Z,34.80
2019-02-24T18:17:19.130Z,38.80
2019-02-24T18:19:50.793Z,44.50
2019-02-24T18:22:22.411Z,45.93
2019-02-24T18:25:02.722Z,42.20
2019-02-24T18:27:27.390Z,57.40
2019-02-24T18:29:59.144Z,61.17
2019-02-24T18:32:32.167Z,75.67
2019-02-24T18:35:04.130Z,86.27
2019-02-24T18:37:35.716Z,70.23
2019-02-24T18:40:11.555Z,70.23
2019-02-24T18:42:43.222Z,78.20
2019-02-24T18:45:15.534Z,61.13
2019-02-24T18:47:47.129Z,77.43
2019-02-24T18:50:20.522Z,66.80
2019-02-24T18:52:52.114Z,82.67
2019-02-24T18:55:23.852Z,86.53
2019-02-24T18:57:55.512Z,87.90
2019-02-24T19:00:27.077Z,69.53
2019-02-24T19:02:58.719Z,55.20
2019-02-24T19:05:31.141Z,69.50
2019-02-24T19:08:02.758Z,62.77
2019-02-24T19:10:34.301Z,52.70
2019-02-24T19:13:05.847Z,59.73
2019-02-24T19:15:38.859Z,52.70
2019-02-24T19:18:10.457Z,49.03
2019-02-24T19:20:41.992Z,48.23
2019-02-24T19:23:13.812Z,53.80
2019-02-24T19:25:47.809Z,51.67
2019-02-24T19:31:19.522Z,45.77
2019-02-24T19:33:51.276Z,37.13
2019-02-24T19:36:24.061Z,49.90
2019-02-24T19:39:24.658Z,36.30
2019-02-24T19:42:18.255Z,34.97
2019-02-24T19:45:02.187Z,43.57
2019-02-24T19:50:47.394Z,54.20
2019-02-24T19:53:27.777Z,47.53
2019-02-24T19:56:21.913Z,40.67
2019-02-24T20:01:47.998Z,45.37
2019-02-24T20:04:21.211Z,43.83
2019-02-24T20:10:35.321Z,42.37
2019-02-24T20:13:28.344Z,49.73
2019-02-24T20:16:00.448Z,53.73
2019-02-24T20:18:32.128Z,58.23
2019-02-24T20:21:04.797Z,50.63
2019-02-24T20:23:36.862Z,51.63
2019-02-24T20:26:08.627Z,52.67
2019-02-24T20:28:40.354Z,42.10
2019-02-24T20:31:12.526Z,52.60
2019-02-24T20:34:03.261Z,43.43
2019-02-24T20:36:35.162Z,44.87
2019-02-24T20:39:07.426Z,64.40
2019-02-24T20:41:40.192Z,57.00
2019-02-24T20:44:12.541Z,45.07
2019-02-24T20:46:44.369Z,53.13
2019-02-24T20:49:16.720Z,51.80
2019-02-24T20:51:48.657Z,48.33
2019-02-24T20:54:20.762Z,50.57
2019-02-24T20:56:52.512Z,46.07
2019-02-24T20:59:24.226Z,42.67
2019-02-24T21:01:55.969Z,43.40
2019-02-24T21:04:27.563Z,47.33
2019-02-24T21:06:59.313Z,47.53
2019-02-24T21:09:31.484Z,49.50
2019-02-24T21:12:03.173Z,33.37
2019-02-24T21:14:34.839Z,41.10
2019-02-24T21:17:06.540Z,45.50
2019-02-24T21:19:38.914Z,38.53
2019-02-24T21:22:11.405Z,34.27
2019-02-24T21:24:43.958Z,35.50
2019-02-24T21:27:16.476Z,41.60
2019-02-24T21:29:56.830Z,29.33
2019-02-24T21:32:31.686Z,36.37
2019-02-24T21:35:08.284Z,38.60
2019-02-24T21:37:40.856Z,42.80
2019-02-24T21:40:17.556Z,36.80
2019-02-24T21:42:49.683Z,36.60
2019-02-24T21:45:26.415Z,38.27
2019-02-24T21:47:58.080Z,43.13
2019-02-24T21:50:29.607Z,39.70
2019-02-24T21:53:01.221Z,40.43
2019-02-24T21:55:33.013Z,39.63
2019-02-24T21:58:05.134Z,44.50
2019-02-24T22:00:37.028Z,47.43
2019-02-24T22:03:08.561Z,48.37
2019-02-24T22:05:40.729Z,44.07
2019-02-24T22:08:12.491Z,56.57
2019-02-24T22:10:44.975Z,42.37
2019-02-24T22:13:18.597Z,48.90
2019-02-24T22:15:50.318Z,51.83
2019-02-24T22:18:24.027Z,42.07
2019-02-24T22:20:56.144Z,54.57
2019-02-24T22:23:29.097Z,54.03
2019-02-24T22:26:01.553Z,54.73
2019-02-24T22:28:33.274Z,46.20
2019-02-24T22:31:05.559Z,46.87
2019-02-24T22:33:38.370Z,39.60
2019-02-24T22:36:10.808Z,50.63
2019-02-24T22:38:42.791Z,45.07
2019-02-24T22:41:14.867Z,53.23
2019-02-24T22:43:47.819Z,47.30
2019-02-24T22:46:19.518Z,56.90
2019-02-24T22:48:51.242Z,56.60
2019-02-24T22:51:22.829Z,56.27
2019-02-24T22:53:54.536Z,49.80
2019-02-24T22:56:26.520Z,59.17
2019-02-24T22:58:58.282Z,49.40
2019-02-24T23:01:30.887Z,52.20
2019-02-24T23:04:09.793Z,52.23
2019-02-24T23:06:41.465Z,54.67
2019-02-24T23:09:14.526Z,46.53
2019-02-24T23:11:46.238Z,58.67
2019-02-24T23:14:17.851Z,49.90
2019-02-24T23:16:49.504Z,43.73
2019-02-24T23:19:21.089Z,44.70
2019-02-24T23:21:52.689Z,42.33
2019-02-24T23:24:24.306Z,38.23
2019-02-24T23:26:56.080Z,38.90
2019-02-24T23:29:27.735Z,38.73
2019-02-24T23:31:59.477Z,29.40
2019-02-24T23:34:31.138Z,29.27
2019-02-24T23:37:02.737Z,33.20
2019-02-24T23:39:34.351Z,31.60
2019-02-24T23:42:05.915Z,31.83
2019-02-24T23:44:38.829Z,30.60
2019-02-24T23:47:10.588Z,36.43
2019-02-24T23:49:42.424Z,33.50
2019-02-24T23:52:15.073Z,33.33
2019-02-24T23:54:47.825Z,28.90
2019-02-24T23:57:19.417Z,30.00
2019-02-24T23:59:50.956Z,27.60
